Time;durP1;ratioP1;P1;durP2;ratioP2;P2;SDS_P1;SDS_P2;PMS_P1;PMS_P2;Temp;Humidity;BMP_temperature;BMP_pressure;BME280_temperature;BME280_humidity;BME280_pressure;Samples;Min_cycle;Max_cycle;Signal;HPM_P1;HPM_P2
2022/09/04 00:00:17;;;;;;;6.75;4.72;;;;;;;16.37;100.00;99719.25;12215061;19;20015;-80
2022/09/04 00:04:29;;;;;;;8.35;4.82;;;;;;;16.36;100.00;99722.34;12188594;19;20002;-80
2022/09/04 00:08:55;;;;;;;7.25;4.90;;;;;;;16.34;100.00;99721.78;12214901;19;20011;-80
2022/09/04 00:13:10;;;;;;;9.30;5.70;;;;;;;16.31;100.00;99723.19;12191560;19;20014;-80
2022/09/04 00:17:30;;;;;;;7.30;4.70;;;;;;;16.29;100.00;99730.97;12216643;19;20031;-80
2022/09/04 00:21:43;;;;;;;7.38;4.78;;;;;;;16.28;100.00;99739.63;12231191;19;20051;-79
2022/09/04 00:25:57;;;;;;;;;;;;;;;16.27;100.00;99740.72;12198425;19;20098;-79
2022/09/04 00:30:07;;;;;;;7.57;4.07;;;;;;;16.25;100.00;99743.81;12221761;19;20667;-79
2022/09/04 00:34:44;;;;;;;9.65;4.63;;;;;;;16.23;100.00;99751.59;12193306;19;20032;-79
2022/09/04 00:38:57;;;;;;;7.95;3.83;;;;;;;16.19;100.00;99747.75;12220795;19;20019;-79
2022/09/04 00:43:01;;;;;;;6.43;3.85;;;;;;;16.17;100.00;99752.75;12200220;19;20099;-79
2022/09/04 00:47:28;;;;;;;7.03;3.72;;;;;;;16.15;100.00;99755.00;12219174;19;20010;-79
2022/09/04 00:51:49;;;;;;;9.68;4.70;;;;;;;16.12;100.00;99750.00;12209216;19;20015;-79
2022/09/04 00:56:24;;;;;;;7.30;4.53;;;;;;;16.12;100.00;99763.91;12195181;19;20014;-79
2022/09/04 01:00:27;;;;;;;9.30;4.38;;;;;;;16.08;100.00;99762.84;12213047;19;20082;-79
2022/09/04 01:04:45;;;;;;;9.60;4.65;;;;;;;16.07;100.00;99775.91;12193593;19;20134;-80
2022/09/04 01:09:21;;;;;;;9.18;5.75;;;;;;;16.05;100.00;99775.34;12217311;19;20015;-80
2022/09/04 01:13:45;;;;;;;9.45;5.10;;;;;;;16.04;100.00;99778.44;12194448;19;20078;-80
2022/09/04 01:18:10;;;;;;;13.93;6.32;;;;;;;16.03;100.00;99776.75;12214529;19;20389;-80
2022/09/04 01:22:50;;;;;;;9.20;5.32;;;;;;;16.00;100.00;99778.16;12191940;19;20429;-79
2022/09/04 01:27:03;;;;;;;9.85;5.85;;;;;;;15.94;100.00;99779.28;12214548;19;20078;-79
2022/09/04 01:31:54;;;;;;;14.02;6.55;;;;;;;15.92;100.00;99785.16;12191888;19;20027;-79
2022/09/04 01:36:26;;;;;;;12.18;6.28;;;;;;;15.87;100.00;99795.47;12214763;19;20010;-79
2022/09/04 01:40:37;;;;;;;11.23;6.55;;;;;;;15.84;100.00;99794.06;12195554;19;20084;-79
2022/09/04 01:44:39;;;;;;;11.95;6.78;;;;;;;15.84;100.00;99791.31;12213644;19;20026;-79
2022/09/04 01:49:03;;;;;;;13.93;7.43;;;;;;;15.84;100.00;99791.31;12193884;19;20076;-79
2022/09/04 01:53:13;;;;;;;14.52;6.82;;;;;;;15.82;100.00;99792.69;12212043;19;20027;-78
2022/09/04 01:57:44;;;;;;;13.50;7.25;;;;;;;15.81;100.00;99789.09;12212806;19;20006;-78
2022/09/04 02:01:59;;;;;;;14.43;7.65;;;;;;;15.80;100.00;99798.56;12191334;19;20011;-79
2022/09/04 02:06:11;;;;;;;16.50;8.27;;;;;;;15.80;100.00;99803.28;12209984;19;20018;-79
2022/09/04 02:10:16;;;;;;;17.03;8.23;;;;;;;15.79;100.00;99799.66;12191809;19;20082;-78
2022/09/04 02:14:43;;;;;;;21.50;9.98;;;;;;;15.79;100.00;99805.22;12215318;19;20152;-78
2022/09/04 02:19:05;;;;;;;18.13;9.70;;;;;;;15.79;100.00;99802.44;12196910;19;20051;-79
2022/09/04 02:23:35;;;;;;;21.58;10.60;;;;;;;15.82;100.00;99809.38;12220420;19;20014;-79
2022/09/04 02:27:58;;;;;;;28.98;11.73;;;;;;;15.82;100.00;99806.59;12190167;19;20078;-79
2022/09/04 02:32:06;;;;;;;27.23;13.77;;;;;;;15.80;100.00;99801.34;12214702;19;20018;-78
2022/09/04 02:36:22;;;;;;;25.38;13.13;;;;;;;15.81;100.00;99802.97;12207814;19;20384;-79
2022/09/04 02:41:04;;;;;;;30.38;13.10;;;;;;;15.81;100.00;99796.59;12192233;19;20479;-79
2022/09/04 02:45:23;;;;;;;26.27;12.35;;;;;;;15.79;100.00;99804.38;12204626;19;20074;-78
2022/09/04 02:49:57;;;;;;;29.38;12.68;;;;;;;15.77;100.00;99801.06;12191777;19;20385;-79
2022/09/04 02:54:20;;;;;;;29.13;12.55;;;;;;;15.70;100.00;99805.00;12223413;19;20011;-78
2022/09/04 02:58:30;;;;;;;29.42;12.57;;;;;;;15.62;100.00;99810.28;12231041;19;20011;-77
2022/09/04 03:02:47;;;;;;;26.95;12.88;;;;;;;15.59;100.00;99813.63;12254077;19;20050;-79
2022/09/04 03:07:15;;;;;;;24.23;12.18;;;;;;;15.56;100.00;99811.41;12222885;19;20018;-80
2022/09/04 03:11:22;;;;;;;23.70;11.63;;;;;;;15.53;100.00;99818.34;12219775;19;20015;-79
2022/09/04 03:15:35;;;;;;;24.65;12.50;;;;;;;15.52;100.00;99821.41;12217968;19;20015;-80
2022/09/04 03:19:54;;;;;;;23.58;12.18;;;;;;;15.48;100.00;99830.28;12195833;19;20548;-79
2022/09/04 03:24:41;;;;;;;29.55;14.32;;;;;;;15.50;100.00;99822.53;12217747;19;20018;-80
2022/09/04 03:28:51;;;;;;;26.17;13.15;;;;;;;15.58;100.00;99831.38;12195595;19;20010;-80
2022/09/04 03:33:11;;;;;;;30.05;12.68;;;;;;;15.67;100.00;99827.75;12215877;19;20010;-79
2022/09/04 03:37:23;;;;;;;34.95;14.32;;;;;;;15.77;100.00;99832.47;12190341;19;20516;-79
2022/09/04 03:41:48;;;;;;;29.13;13.87;;;;;;;15.83;100.00;99839.66;12215943;19;20984;-79
2022/09/04 03:46:19;;;;;;;35.88;15.20;;;;;;;15.90;100.00;99842.94;12190224;19;20035;-79
2022/09/04 03:50:37;;;;;;;38.70;15.60;;;;;;;15.93;100.00;99845.16;12213970;19;20014;-79
2022/09/04 03:55:14;;;;;;;45.88;18.23;;;;;;;15.91;100.00;99836.31;12194924;19;20011;-79
2022/09/04 03:59:36;;;;;;;35.47;16.23;;;;;;;15.93;100.00;99847.94;12224770;19;20027;-79
2022/09/04 04:03:50;;;;;;;38.97;15.60;;;;;;;16.03;100.00;99849.00;12197352;19;20090;-79
2022/09/04 04:07:55;;;;;;;39.75;16.30;;;;;;;16.14;100.00;99850.63;12221768;19;20014;-79
2022/09/04 04:12:25;;;;;;;28.23;13.20;;;;;;;16.24;100.00;99847.81;12222064;19;20102;-78
2022/09/04 04:16:28;;;;;;;24.20;11.57;;;;;;;16.29;100.00;99855.28;12224351;19;20025;-77
2022/09/04 04:20:43;;;;;;;22.08;10.07;;;;;;;16.35;100.00;99856.91;12258960;19;20015;-77
2022/09/04 04:25:05;;;;;;;20.15;10.48;;;;;;;16.38;100.00;99862.72;12204805;19;20011;-78
2022/09/04 04:29:41;;;;;;;28.88;12.88;;;;;;;16.45;100.00;99875.47;12220862;19;20362;-79
2022/09/04 04:34:22;;;;;;;30.98;13.90;;;;;;;16.50;100.00;99873.50;12196410;19;20414;-78
2022/09/04 04:38:47;;;;;;;33.47;13.00;;;;;;;16.57;100.00;99882.38;12213202;19;20017;-78
2022/09/04 04:43:05;;;;;;;36.13;13.85;;;;;;;16.65;100.00;99892.03;12194114;19;20567;-78
2022/09/04 04:47:18;;;;;;;31.42;13.50;;;;;;;16.69;100.00;99895.94;12223862;19;20022;-79
2022/09/04 04:51:41;;;;;;;49.90;17.85;;;;;;;16.75;100.00;99900.34;12226789;19;20035;-79
2022/09/04 04:55:54;;;;;;;75.93;23.80;;;;;;;16.80;100.00;99899.50;12201131;19;20046;-79
2022/09/04 05:00:22;;;;;;;88.55;27.77;;;;;;;16.82;100.00;99906.44;12223538;19;20920;-79
2022/09/04 05:04:56;;;;;;;108.30;30.10;;;;;;;16.90;100.00;99910.56;12197965;19;20018;-79
2022/09/04 05:09:19;;;;;;;105.72;31.15;;;;;;;16.93;100.00;99918.34;12221256;19;20031;-79
2022/09/04 05:13:36;;;;;;;114.07;31.15;;;;;;;16.99;100.00;99927.50;12191691;19;20083;-79
2022/09/04 05:17:49;;;;;;;99.38;31.40;;;;;;;17.04;100.00;99925.50;12216943;19;20022;-78
2022/09/04 05:22:03;;;;;;;95.70;28.27;;;;;;;17.08;100.00;99931.31;12198608;19;20024;-78
2022/09/04 05:26:26;;;;;;;82.90;27.10;;;;;;;17.11;100.00;99939.09;12216006;19;20098;-78
2022/09/04 05:30:46;;;;;;;91.60;28.85;;;;;;;17.14;100.00;99946.84;12212390;19;20021;-78
2022/09/04 05:35:02;;;;;;;107.22;28.48;;;;;;;17.14;100.00;99952.41;12190523;19;20018;-78
2022/09/04 05:39:26;;;;;;;104.53;30.85;;;;;;;17.14;100.00;99959.94;12212998;19;20060;-78
2022/09/04 05:43:46;;;;;;;89.93;28.60;;;;;;;17.20;100.00;99967.13;12193163;19;20340;-78
2022/09/04 05:48:04;;;;;;;91.32;27.67;;;;;;;17.28;100.00;99967.34;12215220;19;20006;-78
2022/09/04 05:52:27;;;;;;;93.53;28.05;;;;;;;17.33;100.00;99972.03;12193064;19;20106;-78
2022/09/04 05:56:44;;;;;;;80.22;26.58;;;;;;;17.39;100.00;99987.59;12210399;19;20090;-78
2022/09/04 06:00:45;;;;;;;74.15;26.05;;;;;;;17.43;100.00;99983.13;12190608;19;20023;-78
2022/09/04 06:05:18;;;;;;;104.13;28.88;;;;;;;17.57;100.00;99990.78;12209686;19;20090;-78
2022/09/04 06:09:45;;;;;;;72.15;26.98;;;;;;;17.69;100.00;99996.81;12214143;19;20006;-78
2022/09/04 06:14:01;;;;;;;80.95;26.52;;;;;;;17.80;100.00;99992.84;12184078;19;20016;-78
2022/09/04 06:18:11;;;;;;;82.45;28.60;;;;;;;17.86;100.00;100000.03;12212012;19;20053;-78
2022/09/04 06:22:19;;;;;;;74.82;26.77;;;;;;;17.92;100.00;100001.63;12193981;19;20820;-78
2022/09/04 06:26:36;;;;;;;66.97;24.98;;;;;;;18.06;100.00;100006.53;12213451;19;20103;-78
2022/09/04 06:30:48;;;;;;;52.17;22.20;;;;;;;18.17;100.00;100008.91;12188448;19;20010;-78
2022/09/04 06:35:16;;;;;;;57.47;23.02;;;;;;;18.30;100.00;100017.72;12207698;19;20027;-78
2022/09/04 06:39:33;;;;;;;47.28;21.23;;;;;;;18.41;100.00;100019.22;12209737;19;20003;-77
2022/09/04 06:44:04;;;;;;;46.75;21.25;;;;;;;18.58;100.00;100025.16;12161460;19;20010;-77
2022/09/04 06:48:26;;;;;;;40.08;19.65;;;;;;;18.76;100.00;100029.16;12204153;19;20013;-78
2022/09/04 06:52:37;;;;;;;40.03;19.77;;;;;;;18.91;100.00;100022.53;12171827;19;20098;-77
2022/09/04 06:56:45;;;;;;;41.45;19.55;;;;;;;18.99;100.00;100023.84;12197643;19;20031;-77
2022/09/04 07:00:54;;;;;;;43.38;20.08;;;;;;;19.10;100.00;100031.78;12188047;19;20019;-78
2022/09/04 07:05:02;;;;;;;42.05;18.58;;;;;;;19.24;100.00;100039.38;12207585;19;20031;-78
2022/09/04 07:09:11;;;;;;;41.42;19.85;;;;;;;19.47;100.00;100046.03;12202844;19;20006;-77
2022/09/04 07:13:25;;;;;;;41.00;18.75;;;;;;;19.49;100.00;100050.19;12188542;19;20394;-78
2022/09/04 07:17:38;;;;;;;43.88;19.38;;;;;;;19.51;100.00;100059.09;12210407;19;20086;-78
2022/09/04 07:22:07;;;;;;;39.75;17.65;;;;;;;19.62;100.00;100062.56;12190455;19;20011;-78
2022/09/04 07:26:46;;;;;;;44.75;20.20;;;;;;;19.58;100.00;100076.31;12183752;19;20031;-78
2022/09/04 07:30:51;;;;;;;45.92;19.30;;;;;;;19.49;100.00;100068.94;12191281;19;20003;-79
2022/09/04 07:35:12;;;;;;;43.53;18.17;;;;;;;19.65;100.00;100061.97;12206205;19;20006;-79
2022/09/04 07:39:34;;;;;;;45.00;17.98;;;;;;;19.79;100.00;100071.25;12211746;19;20007;-79
2022/09/04 07:43:53;;;;;;;50.63;18.60;;;;;;;19.91;100.00;100076.38;12188599;19;20036;-78
2022/09/04 07:48:11;;;;;;;49.65;19.95;;;;;;;19.97;100.00;100071.53;12214388;19;20018;-79
2022/09/04 07:52:23;;;;;;;43.97;20.20;;;;;;;19.83;100.00;100073.44;12190551;19;20090;-79
2022/09/04 07:56:44;;;;;;;50.28;20.58;;;;;;;20.00;100.00;100090.50;12210822;19;20082;-78
2022/09/04 08:00:53;;;;;;;41.28;19.60;;;;;;;20.25;100.00;100090.03;12190144;19;20115;-79
2022/09/04 08:05:03;;;;;;;47.10;20.88;;;;;;;20.38;100.00;100098.78;12212437;19;20636;-79
2022/09/04 08:09:11;;;;;;;47.40;21.05;;;;;;;20.53;100.00;100104.13;12217001;19;20006;-78
2022/09/04 08:13:36;;;;;;;41.13;20.58;;;;;;;20.82;100.00;100111.38;12188134;19;20106;-78
2022/09/04 08:18:03;;;;;;;42.03;21.75;;;;;;;21.12;100.00;100107.13;12211917;19;20014;-79
2022/09/04 08:22:12;;;;;;;42.63;22.50;;;;;;;21.49;100.00;100119.22;12190486;19;20010;-78
2022/09/04 08:26:22;;;;;;;39.88;22.05;;;;;;;21.82;98.84;100115.06;12210667;19;20086;-78
2022/09/04 08:30:30;;;;;;;31.42;19.48;;;;;;;22.14;95.13;100121.56;12213236;19;20011;-79
2022/09/04 08:35:10;;;;;;;28.77;18.50;;;;;;;22.13;94.14;100119.94;12189326;19;20582;-78
2022/09/04 08:39:18;;;;;;;31.48;18.80;;;;;;;22.44;91.58;100117.16;12206256;19;20082;-79
2022/09/04 08:43:29;;;;;;;27.63;19.20;;;;;;;22.36;90.77;100123.56;12201432;19;20052;-79
2022/09/04 08:48:19;;;;;;;24.40;16.02;;;;;;;22.26;90.95;100133.09;12223772;19;20010;-78
2022/09/04 08:52:39;;;;;;;21.27;14.20;;;;;;;22.56;87.77;100125.00;12202375;19;20010;-79
2022/09/04 08:56:50;;;;;;;23.50;15.45;;;;;;;22.82;86.44;100130.75;12219524;19;20018;-79
2022/09/04 09:01:19;;;;;;;18.50;12.82;;;;;;;23.18;84.55;100132.56;12203517;19;20010;-79
2022/09/04 09:05:35;;;;;;;20.25;13.95;;;;;;;23.22;83.80;100132.72;12219812;19;20413;-80
2022/09/04 09:10:27;;;;;;;24.13;15.13;;;;;;;23.12;82.82;100133.84;12223679;19;20014;-79
2022/09/04 09:14:52;;;;;;;19.23;12.70;;;;;;;23.23;83.19;100145.59;12113144;19;2004345;-79
2022/09/04 09:19:09;;;;;;;22.15;12.95;;;;;;;23.59;80.70;100137.75;12204386;19;20023;-79
2022/09/04 09:23:48;;;;;;;19.67;13.75;;;;;;;23.75;79.90;100138.13;12223579;19;20019;-79
2022/09/04 09:28:27;;;;;;;17.08;12.90;;;;;;;23.99;77.12;100139.63;12200463;19;20015;-79
2022/09/04 09:32:38;;;;;;;17.02;11.57;;;;;;;23.98;78.12;100138.78;12220965;19;20019;-79
2022/09/04 09:36:51;;;;;;;19.67;13.80;;;;;;;24.22;77.06;100131.81;12197813;19;20081;-79
2022/09/04 09:41:11;;;;;;;21.00;13.25;;;;;;;24.51;74.96;100139.56;12215271;19;20010;-80
2022/09/04 09:45:36;;;;;;;18.90;13.05;;;;;;;24.35;75.46;100136.41;12221061;19;20036;-80
2022/09/04 09:50:03;;;;;;;18.15;13.02;;;;;;;24.61;74.02;100127.13;12202299;19;20021;-80
2022/09/04 09:54:14;;;;;;;22.05;15.02;;;;;;;24.91;71.87;100125.16;12219263;19;20468;-81
2022/09/04 09:58:51;;;;;;;20.23;14.00;;;;;;;24.89;72.53;100124.66;12200549;19;20017;-80
2022/09/04 10:03:24;;;;;;;23.00;15.98;;;;;;;24.98;71.79;100126.28;12221281;19;20003;-79
2022/09/04 10:07:35;;;;;;;;;;;;;;;25.06;70.49;100115.31;12200805;19;20029;-79
2022/09/04 10:11:58;;;;;;;22.60;16.38;;;;;;;25.25;70.14;100121.34;12220749;19;19915;-78
2022/09/04 10:16:03;;;;;;;24.50;17.92;;;;;;;24.73;70.34;100124.41;12197621;19;20490;-80
2022/09/04 10:20:35;;;;;;;24.02;15.52;;;;;;;24.59;73.16;100121.81;12252324;19;20006;-79
2022/09/04 10:24:53;;;;;;;21.60;14.93;;;;;;;24.63;72.36;100119.97;12248713;19;20011;-79
2022/09/04 10:29:10;;;;;;;19.85;13.40;;;;;;;25.12;70.48;100117.59;12221882;19;20356;-79
2022/09/04 10:33:29;;;;;;;25.40;16.25;;;;;;;25.33;69.37;100117.66;12225184;19;20010;-80
2022/09/04 10:37:55;;;;;;;18.90;12.73;;;;;;;25.46;68.87;100119.41;12197981;19;20436;-79
2022/09/04 10:42:07;;;;;;;19.05;12.20;;;;;;;25.84;66.79;100106.34;12222581;19;20010;-81
2022/09/04 10:46:21;;;;;;;21.25;12.05;;;;;;;26.10;64.69;100104.13;12202738;19;20016;-80
2022/09/04 10:51:01;;;;;;;19.90;12.50;;;;;;;26.00;64.07;100120.66;12222313;19;20527;-80
2022/09/04 10:55:05;;;;;;;17.30;11.32;;;;;;;26.26;63.74;100104.28;12193385;19;20069;-80
2022/09/04 10:59:29;;;;;;;15.00;10.32;;;;;;;26.37;62.15;100104.69;12223087;19;20038;-81
2022/09/04 11:03:42;;;;;;;16.55;10.20;;;;;;;26.34;61.33;100109.03;12222231;19;20044;-80
2022/09/04 11:08:17;;;;;;;15.35;9.23;;;;;;;26.28;60.07;100109.59;12208941;19;20051;-80
2022/09/04 11:12:38;;;;;;;13.88;9.40;;;;;;;26.31;61.18;100106.06;12226526;19;20006;-79
2022/09/04 11:16:40;;;;;;;14.60;7.68;;;;;;;26.79;59.46;100113.84;12205321;19;20034;-80
2022/09/04 11:21:02;;;;;;;15.93;8.65;;;;;;;26.94;56.85;100111.50;12229918;19;20059;-79
2022/09/04 11:25:26;;;;;;;10.60;7.07;;;;;;;27.18;55.75;100114.34;12204649;19;20530;-80
2022/09/04 11:29:39;;;;;;;13.32;6.03;;;;;;;27.25;53.81;100108.94;12226309;19;20704;-78
2022/09/04 11:34:18;;;;;;;4.78;2.92;;;;;;;27.63;52.29;100110.50;12203164;19;20007;-81
2022/09/04 11:38:42;;;;;;;7.07;4.05;;;;;;;28.00;51.21;100101.13;12232374;19;20006;-80
2022/09/04 11:42:56;;;;;;;8.15;5.30;;;;;;;28.43;50.27;100100.31;12209212;19;20015;-80
2022/09/04 11:47:46;;;;;;;6.75;4.18;;;;;;;28.84;49.75;100093.31;12232667;19;20011;-81
2022/09/04 11:52:02;;;;;;;6.78;4.72;;;;;;;29.32;47.24;100090.44;12205020;19;20018;-81
2022/09/04 11:56:37;;;;;;;5.78;3.00;;;;;;;29.68;45.55;100103.44;12231365;19;20011;-80
2022/09/04 12:01:15;;;;;;;6.13;4.90;;;;;;;30.34;44.60;100097.94;12225018;19;20013;-78
2022/09/04 12:05:54;;;;;;;6.90;4.68;;;;;;;31.17;43.58;100083.94;12229426;19;20015;-78
2022/09/04 12:10:09;;;;;;;6.50;3.67;;;;;;;31.25;41.37;100094.25;12209990;19;20022;-78
2022/09/04 12:14:17;;;;;;;7.47;4.00;;;;;;;31.47;41.32;100083.22;12223744;19;20014;-77
2022/09/04 12:18:23;;;;;;;7.28;3.67;;;;;;;31.48;39.71;100079.97;12241384;19;20042;-78
2022/09/04 12:22:40;;;;;;;3.92;2.60;;;;;;;31.99;38.61;100090.03;12212914;19;20513;-78
2022/09/04 12:26:49;;;;;;;6.93;2.97;;;;;;;32.27;36.82;100083.03;12225837;19;20109;-80
2022/09/04 12:31:22;;;;;;;3.95;2.78;;;;;;;32.41;36.62;100089.69;12204407;19;20039;-79
2022/09/04 12:35:28;;;;;;;2.77;1.90;;;;;;;32.87;35.93;100083.66;12225732;19;20014;-80
2022/09/04 12:39:52;;;;;;;2.25;1.98;;;;;;;33.50;34.02;100081.69;12230682;19;20007;-79
2022/09/04 12:44:07;;;;;;;2.35;1.95;;;;;;;33.47;34.27;100084.53;12246673;19;19999;-82
2022/09/04 12:48:36;;;;;;;2.35;1.67;;;;;;;33.81;32.19;100085.13;12271347;19;20021;-82
2022/09/04 12:52:58;;;;;;;2.50;2.08;;;;;;;34.14;31.86;100091.81;12239703;19;19999;-84
2022/09/04 12:57:24;;;;;;;2.30;2.10;;;;;;;34.37;32.11;100089.44;12239962;19;20014;-81
2022/09/04 13:01:49;;;;;;;1.75;1.55;;;;;;;34.68;30.26;100084.19;12210393;19;20472;-80
2022/09/04 13:06:15;;;;;;;3.72;2.00;;;;;;;35.19;30.09;100074.41;12235792;19;20082;-82
2022/09/04 13:10:27;;;;;;;3.03;1.58;;;;;;;35.28;29.46;100082.53;12217616;19;20014;-81
2022/09/04 13:15:02;;;;;;;1.63;1.38;;;;;;;35.48;29.54;100072.28;12233478;19;20101;-82
2022/09/04 13:19:15;;;;;;;2.10;1.67;;;;;;;35.89;27.97;100086.09;12217915;19;20014;-84
2022/09/04 13:23:38;;;;;;;1.80;1.60;;;;;;;35.99;28.41;100085.25;12236181;19;20027;-82
2022/09/04 13:28:06;;;;;;;2.63;2.00;;;;;;;35.70;28.63;100080.84;12212117;19;20032;-83
2022/09/04 13:32:26;;;;;;;2.00;1.80;;;;;;;36.35;28.55;100072.75;12234526;19;20014;-83
2022/09/04 13:36:40;;;;;;;2.40;1.83;;;;;;;36.84;27.91;100076.53;12228796;19;20010;-80
2022/09/04 13:40:53;;;;;;;2.92;1.90;;;;;;;37.37;27.16;100072.38;12211029;19;20031;-80
2022/09/04 13:45:22;;;;;;;1.70;1.52;;;;;;;37.75;25.99;100067.47;12232001;19;20014;-80
2022/09/04 13:49:48;;;;;;;2.28;1.83;;;;;;;37.83;25.33;100073.91;12197206;19;20014;-80
2022/09/04 13:54:10;;;;;;;2.42;1.80;;;;;;;37.39;26.10;100067.00;12208530;19;20371;-79
2022/09/04 13:58:18;;;;;;;1.80;1.42;;;;;;;37.15;26.12;100064.00;12189210;19;20388;-80
2022/09/04 14:02:24;;;;;;;1.70;1.60;;;;;;;35.68;27.08;100064.06;12212923;19;20039;-78
2022/09/04 14:06:29;;;;;;;2.45;1.80;;;;;;;34.43;28.40;100056.34;12210943;19;20755;-79
2022/09/04 14:10:54;;;;;;;2.30;1.80;;;;;;;32.88;29.77;100062.44;12193781;19;20010;-78
2022/09/04 14:15:30;;;;;;;2.97;1.52;;;;;;;31.62;30.72;100067.97;12210981;19;20010;-81
2022/09/04 14:19:56;;;;;;;3.38;1.80;;;;;;;30.91;31.37;100066.88;12194114;19;20349;-79
2022/09/04 14:24:37;;;;;;;2.22;1.60;;;;;;;30.28;32.14;100066.16;12218161;19;20018;-79
2022/09/04 14:28:46;;;;;;;;;;;;;;;29.83;33.08;100064.00;12196494;19;20151;-79
2022/09/04 14:33:04;;;;;;;4.60;1.85;;;;;;;29.92;33.05;100053.22;12219883;19;19915;-80
2022/09/04 14:37:47;;;;;;;2.97;1.50;;;;;;;31.07;32.07;100059.00;12195966;19;20015;-79
2022/09/04 14:42:15;;;;;;;1.83;1.50;;;;;;;32.15;30.82;100062.13;12226215;19;20018;-80
2022/09/04 14:46:27;;;;;;;4.07;1.80;;;;;;;31.98;31.03;100072.13;12201458;19;20014;-80
2022/09/04 14:50:42;;;;;;;2.10;1.83;;;;;;;32.18;31.02;100064.19;12227781;19;20014;-80
2022/09/04 14:54:45;;;;;;;2.33;1.90;;;;;;;32.17;30.63;100071.13;12204894;19;20002;-78
2022/09/04 14:59:12;;;;;;;3.97;1.90;;;;;;;31.78;30.43;100068.59;12225183;19;20010;-80
2022/09/04 15:03:36;;;;;;;1.90;1.60;;;;;;;31.62;30.25;100070.81;12225230;19;20015;-79
2022/09/04 15:07:40;;;;;;;2.83;1.80;;;;;;;31.14;31.13;100064.78;12207090;19;20047;-79
2022/09/04 15:11:42;;;;;;;2.13;1.75;;;;;;;30.43;31.73;100062.38;12221662;19;20015;-78
2022/09/04 15:15:55;;;;;;;3.80;2.00;;;;;;;29.89;32.44;100063.31;12196721;19;20014;-79
2022/09/04 15:19:56;;;;;;;2.45;1.80;;;;;;;29.64;33.55;100068.47;12223512;19;20010;-80
2022/09/04 15:24:22;;;;;;;3.25;1.90;;;;;;;29.30;34.43;100051.09;12219144;19;20079;-79
2022/09/04 15:28:45;;;;;;;2.08;1.73;;;;;;;28.93;35.31;100056.25;12198157;19;22255;-79
2022/09/04 15:32:49;;;;;;;2.25;1.77;;;;;;;28.73;35.56;100057.34;12218180;19;20022;-81
2022/09/04 15:36:53;;;;;;;2.58;1.90;;;;;;;28.66;35.40;100051.53;12191857;19;20020;-79
2022/09/04 15:40:54;;;;;;;2.58;1.90;;;;;;;28.89;34.60;100055.34;12216976;19;20010;-78
2022/09/04 15:45:30;;;;;;;4.30;2.00;;;;;;;29.25;34.80;100062.72;12209243;19;20010;-79
2022/09/04 15:49:38;;;;;;;4.15;1.77;;;;;;;29.08;34.70;100055.44;12200263;19;20011;-80
2022/09/04 15:53:48;;;;;;;1.83;1.55;;;;;;;28.66;35.43;100051.53;12226869;19;20439;-78
2022/09/04 15:58:13;;;;;;;2.25;1.80;;;;;;;28.36;36.54;100044.25;12206428;19;20461;-78
2022/09/04 16:02:37;;;;;;;3.35;1.80;;;;;;;28.05;37.18;100047.03;12223112;19;20015;-79
2022/09/04 16:06:48;;;;;;;2.03;1.40;;;;;;;27.95;36.94;100040.69;12223974;19;20017;-80
2022/09/04 16:11:05;;;;;;;2.60;1.73;;;;;;;27.95;37.65;100048.38;12201200;19;20049;-79
2022/09/04 16:15:23;;;;;;;2.58;1.80;;;;;;;27.77;37.72;100044.19;12221400;19;20026;-78
2022/09/04 16:19:34;;;;;;;3.25;1.55;;;;;;;27.78;38.35;100043.00;12201020;19;20528;-79
2022/09/04 16:23:38;;;;;;;2.55;1.42;;;;;;;27.78;37.37;100046.69;12260908;19;20054;-83
2022/09/04 16:27:45;;;;;;;2.20;1.45;;;;;;;27.66;37.75;100044.72;12255296;19;20022;-78
2022/09/04 16:31:52;;;;;;;2.08;1.67;;;;;;;27.59;37.82;100044.47;12199829;19;20029;-79
2022/09/04 16:36:02;;;;;;;1.73;1.25;;;;;;;27.42;37.68;100033.44;12216710;19;20039;-79
2022/09/04 16:40:23;;;;;;;2.28;1.70;;;;;;;27.26;37.99;100042.69;12201060;19;20035;-78
2022/09/04 16:44:37;;;;;;;3.65;1.70;;;;;;;26.99;38.45;100037.75;12217566;19;20370;-82
2022/09/04 16:48:56;;;;;;;1.98;1.23;;;;;;;26.75;39.42;100044.25;12225097;19;20015;-81
2022/09/04 16:53:11;;;;;;;2.35;1.60;;;;;;;26.56;39.05;100039.16;12199484;19;20082;-80
2022/09/04 16:57:25;;;;;;;2.17;1.40;;;;;;;26.42;39.46;100033.00;12219506;19;20920;-79
2022/09/04 17:01:41;;;;;;;8.55;1.83;;;;;;;26.28;40.46;100027.69;12196623;19;20066;-78
2022/09/04 17:05:51;;;;;;;2.53;1.60;;;;;;;26.26;39.92;100038.50;12215196;19;20358;-79
2022/09/04 17:10:06;;;;;;;5.82;1.67;;;;;;;26.23;40.05;100033.53;12197869;19;20015;-79
2022/09/04 17:14:21;;;;;;;2.70;1.52;;;;;;;26.20;40.63;100035.06;12220158;19;20499;-80
2022/09/04 17:18:27;;;;;;;3.63;1.67;;;;;;;26.14;40.43;100025.16;12218449;19;20364;-79
2022/09/04 17:22:45;;;;;;;2.78;1.88;;;;;;;26.02;41.25;100028.78;12198549;19;20349;-79
2022/09/04 17:27:16;;;;;;;3.83;2.25;;;;;;;25.96;40.97;100032.19;12219141;19;20006;-78
2022/09/04 17:31:47;;;;;;;2.60;1.80;;;;;;;25.85;41.54;100027.00;12199231;19;20480;-78
2022/09/04 17:36:04;;;;;;;1.80;1.52;;;;;;;25.90;41.79;100028.75;12214127;19;20093;-80
2022/09/04 17:40:33;;;;;;;3.83;1.60;;;;;;;25.79;42.09;100030.31;12196166;19;20353;-78
2022/09/04 17:45:21;;;;;;;1.63;1.40;;;;;;;25.47;43.01;100032.78;12217992;19;20476;-79
2022/09/04 17:49:28;;;;;;;3.15;1.58;;;;;;;25.15;43.84;100035.16;12192869;19;20018;-78
2022/09/04 17:53:37;;;;;;;;;;;;;;;24.86;44.00;100038.78;12220191;19;20085;-80
2022/09/04 17:57:50;;;;;;;2.50;1.80;;;;;;;24.58;44.99;100040.44;12222441;19;19928;-80
2022/09/04 18:02:00;;;;;;;4.32;1.65;;;;;;;24.27;46.29;100039.56;12193485;19;20007;-79
2022/09/04 18:06:07;;;;;;;3.40;1.50;;;;;;;23.98;46.81;100051.53;12216849;19;20018;-80
2022/09/04 18:10:31;;;;;;;2.80;1.80;;;;;;;23.69;48.10;100040.94;12203856;19;20011;-81
2022/09/04 18:14:44;;;;;;;3.13;1.77;;;;;;;23.45;48.26;100052.69;12216553;19;20372;-80
2022/09/04 18:19:13;;;;;;;2.28;1.70;;;;;;;23.18;49.57;100062.28;12193128;19;20684;-80
2022/09/04 18:23:37;;;;;;;3.30;1.92;;;;;;;22.96;50.35;100069.66;12214046;19;20035;-79
2022/09/04 18:28:10;;;;;;;3.47;2.08;;;;;;;22.71;50.73;100074.00;12196702;19;20011;-79
2022/09/04 18:32:16;;;;;;;2.78;2.00;;;;;;;22.50;51.25;100070.13;12217533;19;20015;-79
2022/09/04 18:37:12;;;;;;;3.63;2.00;;;;;;;22.33;52.56;100073.66;12215314;19;20031;-80
2022/09/04 18:41:55;;;;;;;4.30;1.73;;;;;;;22.17;53.02;100078.88;12118861;19;2004498;-79
2022/09/04 18:46:24;;;;;;;3.60;2.75;;;;;;;22.02;53.31;100082.88;12194940;19;20002;-80
2022/09/04 18:51:04;;;;;;;5.18;2.85;;;;;;;21.91;54.87;100072.22;12219938;19;20018;-79
2022/09/04 18:55:55;;;;;;;7.88;3.20;;;;;;;21.76;55.41;100088.28;12199956;19;20011;-81
2022/09/04 19:00:08;;;;;;;3.58;2.67;;;;;;;21.68;55.57;100094.66;12227950;19;20018;-80
2022/09/04 19:04:28;;;;;;;;;;;;;;;21.58;55.12;100092.09;12203809;19;20007;-79
2022/09/04 19:08:36;;;;;;;3.42;2.50;;;;;;;21.48;56.01;100100.75;12221273;19;20275;-80
2022/09/04 19:12:51;;;;;;;4.05;2.58;;;;;;;21.36;57.06;100104.94;12220172;19;20023;-79
2022/09/04 19:17:20;;;;;;;2.35;1.95;;;;;;;21.26;57.93;100110.72;12192888;19;20373;-80
2022/09/04 19:21:30;;;;;;;2.85;2.05;;;;;;;21.16;57.97;100106.19;12219845;19;20006;-80
2022/09/04 19:25:43;;;;;;;4.32;2.10;;;;;;;21.09;58.62;100102.97;12192150;19;20006;-80
2022/09/04 19:29:59;;;;;;;2.63;2.03;;;;;;;21.05;58.45;100109.50;12219360;19;20076;-79
2022/09/04 19:34:38;;;;;;;2.38;1.92;;;;;;;20.99;59.13;100113.56;12194443;19;20006;-79
2022/09/04 19:38:53;;;;;;;2.95;1.98;;;;;;;20.91;59.00;100101.97;12219943;19;20016;-79